Time,TemperatureF,DewpointF,PressureIn,WindDirection,WindDirectionDegrees,WindSpeedMPH,WindSpeedGustMPH,Humidity,HourlyPrecipIn,Conditions,Clouds,dailyrainin,SolarRadiationWatts/m^2,SoftwareType,DateUTC
2015-08-04 00:09:00,62.1,51.4,29.72,SSW,205,7.0,7.0,68,0.00,,,0.00,0,Wunderground v.1.15,2015-08-04 06:09:00,
2015-08-04 00:14:00,62.0,51.3,29.72,SW,226,6.0,6.0,68,0.00,,,0.00,0,Wunderground v.1.15,2015-08-04 06:14:00,
2015-08-04 00:20:00,61.9,51.2,29.72,WSW,255,4.0,5.0,68,0.00,,,0.00,0,Wunderground v.1.15,2015-08-04 06:20:00,
2015-08-04 00:26:00,61.9,50.8,29.73,SW,216,6.0,8.0,67,0.00,,,0.00,0,Wunderground v.1.15,2015-08-04 06:26:00,
2015-08-04 00:32:00,61.9,50.8,29.73,SW,223,5.0,7.0,67,0.00,,,0.00,0,Wunderground v.1.15,2015-08-04 06:32:00,
2015-08-04 00:37:00,62.0,50.9,29.73,SSW,197,8.0,10.0,67,0.00,,,0.00,0,Wunderground v.1.15,2015-08-04 06:37:00,
2015-08-04 00:43:00,62.0,51.3,29.72,SW,219,9.0,9.0,68,0.00,,,0.00,0,Wunderground v.1.15,2015-08-04 06:43:00,
2015-08-04 00:49:00,61.9,51.2,29.72,SW,234,10.0,10.0,68,0.00,,,0.00,0,Wunderground v.1.15,2015-08-04 06:49:00,
2015-08-04 00:54:00,61.8,50.7,29.72,SW,235,9.0,14.0,67,0.00,,,0.00,0,Wunderground v.1.15,2015-08-04 06:54:00,
2015-08-04 01:00:00,61.8,50.3,29.72,SSW,209,6.0,7.0,66,0.00,,,0.00,0,Wunderground v.1.15,2015-08-04 07:00:00,
2015-08-04 01:06:00,61.9,50.0,29.72,SSW,200,8.0,11.0,65,0.00,,,0.00,0,Wunderground v.1.15,2015-08-04 07:06:00,
2015-08-04 01:11:00,62.0,50.1,29.71,SSW,204,5.0,7.0,65,0.00,,,0.00,0,Wunderground v.1.15,2015-08-04 07:11:00,
2015-08-04 01:17:00,62.1,49.8,29.72,SW,230,5.0,7.0,64,0.00,,,0.00,0,Wunderground v.1.15,2015-08-04 07:17:00,
2015-08-04 01:23:00,62.1,49.8,29.72,SW,215,8.0,10.0,64,0.00,,,0.00,0,Wunderground v.1.15,2015-08-04 07:23:00,
2015-08-04 01:29:00,62.1,49.4,29.72,SW,236,6.0,10.0,63,0.00,,,0.00,0,Wunderground v.1.15,2015-08-04 07:29:00,
2015-08-04 01:35:00,62.3,49.1,29.71,SSW,202,3.0,10.0,62,0.00,,,0.00,0,Wunderground v.1.15,2015-08-04 07:35:00,
2015-08-04 01:41:00,62.3,48.7,29.71,SW,217,4.0,10.0,61,0.00,,,0.00,0,Wunderground v.1.15,2015-08-04 07:41:00,
2015-08-04 01:47:00,62.3,48.7,29.71,SSW,207,7.0,10.0,61,0.00,,,0.00,0,Wunderground v.1.15,2015-08-04 07:47:00,
2015-08-04 01:52:00,62.3,48.7,29.71,SSE,164,5.0,6.0,61,0.00,,,0.00,0,Wunderground v.1.15,2015-08-04 07:52:00,
2015-08-04 01:57:00,62.3,48.7,29.71,SW,215,8.0,8.0,61,0.00,,,0.00,0,Wunderground v.1.15,2015-08-04 07:57:00,
2015-08-04 02:07:00,62.3,47.8,29.71,SW,236,5.0,10.0,59,0.00,,,0.00,0,Wunderground v.1.15,2015-08-04 08:07:00,
2015-08-04 02:12:00,62.4,47.9,29.71,SW,219,3.0,9.0,59,0.00,,,0.00,0,Wunderground v.1.15,2015-08-04 08:12:00,
2015-08-04 02:17:00,62.5,47.5,29.71,South,184,4.0,9.0,58,0.00,,,0.00,0,Wunderground v.1.15,2015-08-04 08:17:00,
2015-08-04 02:22:00,62.7,47.2,29.71,SSW,212,3.0,7.0,57,0.00,,,0.00,0,Wunderground v.1.15,2015-08-04 08:22:00,
2015-08-04 02:27:00,62.8,47.3,29.71,SSW,194,7.0,9.0,57,0.00,,,0.00,0,Wunderground v.1.15,2015-08-04 08:27:00,
2015-08-04 02:32:00,62.8,46.9,29.71,SSW,208,5.0,7.0,56,0.00,,,0.00,0,Wunderground v.1.15,2015-08-04 08:32:00,
2015-08-04 02:37:00,62.9,47.0,29.71,SW,215,7.0,8.0,56,0.00,,,0.00,0,Wunderground v.1.15,2015-08-04 08:37:00,
2015-08-04 02:42:00,62.8,46.4,29.71,South,184,5.0,7.0,55,0.00,,,0.00,0,Wunderground v.1.15,2015-08-04 08:42:00,
2015-08-04 02:47:00,62.7,46.3,29.71,SW,229,4.0,9.0,55,0.00,,,0.00,0,Wunderground v.1.15,2015-08-04 08:47:00,
2015-08-04 02:52:00,62.6,46.2,29.71,SSW,209,6.0,9.0,55,0.00,,,0.00,0,Wunderground v.1.15,2015-08-04 08:52:00,